Time;durP1;ratioP1;P1;durP2;ratioP2;P2;SDS_P1;SDS_P2;PMS_P1;PMS_P2;Temp;Humidity;BMP_temperature;BMP_pressure;BME280_temperature;BME280_humidity;BME280_pressure;Samples;Min_cycle;Max_cycle;Signal;HPM_P1;HPM_P2
2021/10/23 00:01:52;;;;;;;8.90;2.70;;;10.50;99.90;;;;;;5018895;28;20470;-79
2021/10/23 00:04:19;;;;;;;9.80;2.50;;;10.40;99.90;;;;;;5018571;28;20453;-78
2021/10/23 00:06:46;;;;;;;9.77;2.97;;;10.50;99.90;;;;;;5018547;28;20513;-78
2021/10/23 00:09:13;;;;;;;6.80;2.40;;;10.40;99.90;;;;;;5018747;28;20428;-78
2021/10/23 00:11:40;;;;;;;8.87;3.10;;;10.40;99.90;;;;;;5019641;28;20801;-78
2021/10/23 00:14:08;;;;;;;5.90;2.23;;;10.40;99.90;;;;;;5018553;28;20432;-79
2021/10/23 00:16:35;;;;;;;4.83;2.40;;;10.40;99.90;;;;;;5018140;28;20438;-78
2021/10/23 00:19:01;;;;;;;7.37;2.33;;;10.40;99.90;;;;;;5029767;28;20477;-77
2021/10/23 00:21:28;;;;;;;4.47;2.27;;;10.50;99.90;;;;;;5032166;28;20449;-78
2021/10/23 00:23:55;;;;;;;5.30;2.30;;;10.40;99.90;;;;;;5022976;28;20485;-79
2021/10/23 00:26:22;;;;;;;6.27;2.40;;;10.40;99.90;;;;;;5026163;28;20457;-77
2021/10/23 00:28:49;;;;;;;7.77;2.80;;;10.40;99.90;;;;;;5029720;28;20471;-78
2021/10/23 00:31:17;;;;;;;5.93;2.10;;;10.40;99.90;;;;;;5017907;28;20514;-78
2021/10/23 00:33:44;;;;;;;4.47;2.33;;;10.40;99.90;;;;;;5017676;28;20428;-78
2021/10/23 00:36:11;;;;;;;5.97;2.30;;;10.40;99.90;;;;;;5017091;28;20533;-77
2021/10/23 00:38:38;;;;;;;7.53;2.37;;;10.40;99.90;;;;;;5017041;28;20499;-78
2021/10/23 00:41:05;;;;;;;7.90;2.67;;;10.40;99.90;;;;;;5018005;28;20438;-79
2021/10/23 00:43:31;;;;;;;7.07;2.50;;;10.30;99.90;;;;;;5019341;28;20482;-77
2021/10/23 00:45:58;;;;;;;6.70;2.53;;;10.30;99.90;;;;;;5032992;28;20601;-77
2021/10/23 00:48:26;;;;;;;5.37;2.70;;;10.30;99.90;;;;;;5019796;28;21063;-78
2021/10/23 00:50:53;;;;;;;6.03;2.17;;;10.30;99.90;;;;;;5017535;28;20528;-78
2021/10/23 00:53:22;;;;;;;6.20;2.30;;;10.40;99.90;;;;;;5017558;28;20458;-78
2021/10/23 00:55:49;;;;;;;6.70;2.37;;;10.30;99.90;;;;;;5018814;28;20465;-78
2021/10/23 00:58:17;;;;;;;7.17;2.00;;;10.40;99.90;;;;;;5022730;28;20532;-78
2021/10/23 01:00:44;;;;;;;9.03;2.80;;;10.50;99.90;;;;;;5019647;28;20462;-78
2021/10/23 01:03:11;;;;;;;7.53;2.30;;;10.60;99.90;;;;;;5020049;28;20834;-78
2021/10/23 01:05:39;;;;;;;7.40;2.53;;;10.50;99.90;;;;;;5028739;28;20458;-78
2021/10/23 01:08:06;;;;;;;5.87;2.07;;;10.60;99.90;;;;;;5020004;28;20468;-78
2021/10/23 01:10:33;;;;;;;6.23;2.40;;;10.50;99.90;;;;;;5021965;28;20487;-78
2021/10/23 01:13:00;;;;;;;7.20;2.70;;;10.50;99.90;;;;;;5023634;28;20499;-79
2021/10/23 01:15:28;;;;;;;8.60;2.40;;;10.50;99.90;;;;;;5018610;28;20412;-79
2021/10/23 01:17:57;;;;;;;9.87;2.60;;;10.50;99.90;;;;;;5018327;28;20881;-79
2021/10/23 01:20:27;;;;;;;5.87;2.00;;;10.50;99.90;;;;;;5017801;28;20540;-79
2021/10/23 01:22:55;;;;;;;5.20;1.97;;;10.50;99.90;;;;;;5016957;28;20581;-79
2021/10/23 01:25:29;;;;;;;9.07;2.73;;;10.50;99.90;;;;;;5017498;28;20465;-79
2021/10/23 01:27:58;;;;;;;6.93;2.20;;;10.60;99.90;;;;;;5017614;28;20500;-79
2021/10/23 01:30:25;;;;;;;6.07;2.40;;;10.50;99.90;;;;;;5017508;28;20492;-78
2021/10/23 01:32:53;;;;;;;3.80;1.97;;;10.50;99.90;;;;;;5017673;28;20452;-79
2021/10/23 01:35:21;;;;;;;4.03;2.10;;;10.50;99.90;;;;;;5017348;28;20831;-79
2021/10/23 01:37:50;;;;;;;5.23;2.20;;;10.40;99.90;;;;;;5017355;28;20481;-79
2021/10/23 01:40:20;;;;;;;7.77;2.30;;;10.50;99.90;;;;;;5029769;28;20449;-79
2021/10/23 01:42:47;;;;;;;7.10;2.43;;;10.40;99.90;;;;;;5020629;28;20976;-79
2021/10/23 01:45:14;;;;;;;7.97;2.03;;;10.40;99.90;;;;;;5022886;28;20449;-79
2021/10/23 01:47:43;;;;;;;7.53;2.10;;;10.40;99.90;;;;;;5017640;28;20540;-79
2021/10/23 01:50:14;;;;;;;9.80;2.77;;;10.40;99.90;;;;;;5017633;28;20461;-79
2021/10/23 01:52:41;;;;;;;5.87;2.10;;;10.30;99.90;;;;;;5018005;28;20499;-79
2021/10/23 01:55:11;;;;;;;5.07;2.33;;;10.30;99.90;;;;;;5015928;28;20454;-79
2021/10/23 01:57:38;;;;;;;5.83;2.57;;;10.50;99.90;;;;;;5016497;28;20494;-79
2021/10/23 02:00:07;;;;;;;8.80;2.30;;;10.30;99.90;;;;;;5017418;28;20479;-79
2021/10/23 02:02:34;;;;;;;4.80;2.63;;;10.10;99.90;;;;;;5017213;28;20512;-79
2021/10/23 02:05:00;;;;;;;7.00;2.43;;;10.10;99.90;;;;;;5016752;28;20454;-79
2021/10/23 02:07:27;;;;;;;4.47;2.20;;;10.20;99.90;;;;;;5016523;28;20478;-79
2021/10/23 02:09:54;;;;;;;6.73;2.40;;;10.00;99.90;;;;;;5016987;28;20871;-79
2021/10/23 02:12:22;;;;;;;8.33;3.03;;;9.90;99.90;;;;;;5016808;28;20531;-79
2021/10/23 02:14:49;;;;;;;7.60;2.87;;;9.90;99.90;;;;;;5016394;28;20459;-79
2021/10/23 02:17:16;;;;;;;7.73;2.47;;;9.90;99.90;;;;;;5016011;28;20621;-79
2021/10/23 02:19:43;;;;;;;8.30;2.00;;;9.90;99.90;;;;;;5017112;28;20457;-79
2021/10/23 02:22:09;;;;;;;7.37;2.33;;;9.90;99.90;;;;;;5015980;28;20485;-79
2021/10/23 02:24:36;;;;;;;8.30;2.03;;;9.90;99.90;;;;;;5016753;28;20442;-79
2021/10/23 02:27:03;;;;;;;9.03;2.67;;;9.90;99.90;;;;;;5015946;28;20477;-79
2021/10/23 02:29:31;;;;;;;7.07;2.80;;;9.90;99.90;;;;;;5015975;28;20453;-79
2021/10/23 02:31:58;;;;;;;5.33;2.53;;;9.90;99.90;;;;;;5016769;28;20517;-79
2021/10/23 02:34:25;;;;;;;5.93;2.10;;;10.10;99.90;;;;;;5016422;28;20510;-79
2021/10/23 02:36:53;;;;;;;8.10;2.70;;;10.10;99.90;;;;;;5016381;28;20507;-79
2021/10/23 02:39:20;;;;;;;7.13;2.00;;;10.10;99.90;;;;;;5016186;28;20489;-79
2021/10/23 02:41:46;;;;;;;6.37;1.90;;;10.10;99.90;;;;;;5017672;28;20454;-79
2021/10/23 02:44:13;;;;;;;5.40;2.20;;;10.10;99.90;;;;;;5025504;28;20557;-78
2021/10/23 02:46:41;;;;;;;4.57;1.80;;;10.20;99.90;;;;;;5031791;28;20453;-78
2021/10/23 02:49:09;;;;;;;4.97;1.70;;;10.20;99.90;;;;;;5025316;28;20480;-78
2021/10/23 02:51:36;;;;;;;4.27;2.53;;;10.20;99.90;;;;;;5016902;28;20492;-79
2021/10/23 02:54:03;;;;;;;5.93;2.50;;;10.20;99.90;;;;;;5018470;28;20502;-79
2021/10/23 02:56:30;;;;;;;5.90;2.47;;;10.30;99.90;;;;;;5026786;28;20518;-78
2021/10/23 02:58:56;;;;;;;5.83;2.40;;;10.30;99.90;;;;;;5029776;28;20522;-79
2021/10/23 03:01:23;;;;;;;6.20;2.20;;;10.20;99.90;;;;;;5016670;28;20435;-79
2021/10/23 03:03:51;;;;;;;8.90;2.27;;;10.10;99.90;;;;;;5016479;28;20466;-79
2021/10/23 03:06:18;;;;;;;5.23;2.17;;;10.00;99.90;;;;;;5026157;28;20563;-78
2021/10/23 03:08:45;;;;;;;6.10;2.13;;;10.10;99.90;;;;;;5015263;28;20469;-79
2021/10/23 03:11:12;;;;;;;10.77;2.47;;;10.10;99.90;;;;;;5014863;28;20464;-78
2021/10/23 03:13:39;;;;;;;5.90;2.03;;;10.00;99.90;;;;;;5015674;28;20502;-78
2021/10/23 03:16:06;;;;;;;8.77;2.23;;;10.00;99.90;;;;;;5015991;28;20448;-79
2021/10/23 03:18:33;;;;;;;6.03;2.40;;;10.10;99.90;;;;;;5015872;28;20470;-79
2021/10/23 03:21:01;;;;;;;6.10;2.73;;;10.00;99.90;;;;;;5015770;28;20539;-79
2021/10/23 03:23:28;;;;;;;5.93;2.40;;;10.10;99.90;;;;;;5016067;28;20576;-79
2021/10/23 03:25:55;;;;;;;7.03;3.00;;;10.00;99.90;;;;;;5028319;28;20469;-79
2021/10/23 03:28:21;;;;;;;8.43;2.77;;;10.00;99.90;;;;;;5015684;28;20481;-79
2021/10/23 03:30:49;;;;;;;4.00;2.13;;;10.00;99.90;;;;;;5019008;28;20428;-78
2021/10/23 03:33:16;;;;;;;9.00;2.47;;;10.00;99.90;;;;;;5031170;28;20424;-78
2021/10/23 03:35:42;;;;;;;5.47;2.40;;;10.00;99.90;;;;;;5030778;28;20459;-79
2021/10/23 03:38:11;;;;;;;9.13;2.77;;;10.00;99.90;;;;;;5047771;23;20555;-77
2021/10/23 03:40:37;;;;;;;5.40;2.10;;;10.00;99.90;;;;;;5027437;28;20412;-77
2021/10/23 03:43:04;;;;;;;6.40;2.40;;;10.00;99.90;;;;;;5027199;28;20584;-76
2021/10/23 03:45:31;;;;;;;9.30;2.90;;;10.00;99.90;;;;;;5027068;28;20513;-76
2021/10/23 03:47:58;;;;;;;5.67;2.10;;;10.00;99.90;;;;;;5026871;28;20477;-76
2021/10/23 03:50:25;;;;;;;6.20;2.30;;;10.00;99.90;;;;;;5025925;28;20505;-76
2021/10/23 03:52:52;;;;;;;6.07;2.40;;;9.90;99.90;;;;;;5025696;28;20434;-76
2021/10/23 03:55:20;;;;;;;5.57;2.17;;;10.00;99.90;;;;;;5028986;28;20509;-76
2021/10/23 03:57:47;;;;;;;5.60;2.40;;;9.90;99.90;;;;;;5030045;28;20468;-76
2021/10/23 04:00:15;;;;;;;7.07;3.23;;;9.90;99.90;;;;;;5029358;28;20869;-76
2021/10/23 04:02:41;;;;;;;7.90;2.60;;;9.80;99.90;;;;;;5028342;28;20461;-78
2021/10/23 04:05:09;;;;;;;6.53;3.13;;;9.80;99.90;;;;;;5028679;28;20512;-77
2021/10/23 04:07:36;;;;;;;7.23;2.77;;;9.80;99.90;;;;;;5030636;28;20474;-76
2021/10/23 04:10:03;;;;;;;9.03;2.70;;;9.90;99.90;;;;;;5032026;28;20441;-76
2021/10/23 04:12:32;;;;;;;6.33;2.33;;;10.00;99.90;;;;;;5032006;28;20448;-76
2021/10/23 04:15:00;;;;;;;11.10;2.80;;;9.90;99.90;;;;;;5027783;28;20427;-76
2021/10/23 04:17:27;;;;;;;8.77;2.67;;;9.90;99.90;;;;;;5025522;28;20441;-77
2021/10/23 04:19:54;;;;;;;6.40;2.40;;;9.90;99.90;;;;;;5032914;28;20453;-77
2021/10/23 04:22:21;;;;;;;6.77;2.53;;;9.80;99.90;;;;;;5031342;28;20473;-76
2021/10/23 04:24:48;;;;;;;5.60;2.93;;;9.70;99.90;;;;;;5032499;28;20493;-76
2021/10/23 04:27:15;;;;;;;7.60;3.03;;;9.70;99.90;;;;;;5030798;28;20458;-77
2021/10/23 04:29:43;;;;;;;4.17;2.20;;;9.70;99.90;;;;;;5019907;28;20474;-77
2021/10/23 04:32:10;;;;;;;7.43;2.50;;;9.80;99.90;;;;;;5019483;28;20437;-77
2021/10/23 04:34:37;;;;;;;7.87;2.53;;;9.70;99.90;;;;;;5020607;28;20495;-77
2021/10/23 04:37:04;;;;;;;7.57;2.43;;;9.70;99.90;;;;;;5021118;28;20452;-77
2021/10/23 04:39:31;;;;;;;6.10;2.77;;;9.70;99.90;;;;;;5017946;28;20485;-77
2021/10/23 04:41:59;;;;;;;7.73;2.73;;;9.70;99.90;;;;;;5017481;28;20511;-78
2021/10/23 04:44:26;;;;;;;6.47;2.73;;;9.70;99.90;;;;;;5016719;28;20497;-78
2021/10/23 04:46:54;;;;;;;6.33;2.33;;;9.70;99.90;;;;;;5016854;28;20546;-77
2021/10/23 04:49:20;;;;;;;5.23;2.50;;;9.80;99.90;;;;;;5017805;28;20448;-77
2021/10/23 04:51:47;;;;;;;9.17;2.80;;;9.80;99.90;;;;;;5017163;28;20457;-77
2021/10/23 04:54:14;;;;;;;5.63;2.30;;;9.80;99.90;;;;;;5018304;28;20456;-77
2021/10/23 04:56:41;;;;;;;5.27;2.70;;;9.80;99.90;;;;;;5019054;28;20453;-79
2021/10/23 04:59:08;;;;;;;6.50;2.80;;;9.80;99.90;;;;;;5019020;28;20916;-78
2021/10/23 05:01:35;;;;;;;7.70;2.57;;;9.70;99.90;;;;;;5018504;28;20460;-78
2021/10/23 05:04:04;;;;;;;5.17;2.57;;;9.70;99.90;;;;;;5017679;28;20491;-78
2021/10/23 05:06:30;;;;;;;7.50;2.20;;;9.70;99.90;;;;;;5017591;28;20442;-78
2021/10/23 05:08:57;;;;;;;8.67;2.60;;;9.70;99.90;;;;;;5026994;28;20541;-78
2021/10/23 05:11:24;;;;;;;6.73;2.73;;;9.90;99.90;;;;;;5027295;28;20449;-77
2021/10/23 05:13:51;;;;;;;6.30;3.00;;;9.90;99.90;;;;;;5015709;28;20548;-77
2021/10/23 05:16:17;;;;;;;7.93;2.87;;;9.90;99.90;;;;;;5016064;28;20461;-77
2021/10/23 05:18:48;;;;;;;5.17;3.10;;;9.80;99.90;;;;;;5020872;28;20449;-78
2021/10/23 05:21:17;;;;;;;6.80;2.87;;;9.80;99.90;;;;;;5019505;28;20452;-78
2021/10/23 05:23:44;;;;;;;6.70;2.80;;;9.80;99.90;;;;;;5020048;28;20489;-78
2021/10/23 05:26:11;;;;;;;5.80;2.60;;;9.90;99.90;;;;;;5019253;28;20484;-78
2021/10/23 05:28:38;;;;;;;7.57;3.40;;;9.90;99.90;;;;;;5025127;28;20577;-78
2021/10/23 05:31:05;;;;;;;5.80;2.80;;;9.90;99.90;;;;;;5023275;28;20517;-78
2021/10/23 05:33:32;;;;;;;5.40;2.90;;;9.90;99.90;;;;;;5019829;28;20433;-78
2021/10/23 05:35:58;;;;;;;8.53;2.77;;;10.00;99.90;;;;;;5018093;28;20461;-78
2021/10/23 05:38:27;;;;;;;6.27;2.93;;;9.90;99.90;;;;;;5017338;28;20485;-78
2021/10/23 05:40:53;;;;;;;9.40;3.17;;;9.90;99.90;;;;;;5017912;28;20457;-78
2021/10/23 05:43:20;;;;;;;5.00;2.70;;;9.80;99.90;;;;;;5016701;28;20453;-78
2021/10/23 05:45:48;;;;;;;5.00;2.67;;;9.80;99.90;;;;;;5017402;28;20823;-78
2021/10/23 05:48:14;;;;;;;6.03;3.07;;;9.80;99.90;;;;;;5017238;28;20564;-78
2021/10/23 05:50:41;;;;;;;7.73;3.30;;;9.90;99.90;;;;;;5017048;28;20460;-78
2021/10/23 05:53:08;;;;;;;7.30;2.87;;;9.90;99.90;;;;;;5017445;28;20422;-78
2021/10/23 05:55:36;;;;;;;4.83;2.20;;;9.90;99.90;;;;;;5016881;28;20475;-77
2021/10/23 05:58:04;;;;;;;6.73;2.50;;;10.00;99.90;;;;;;5018675;28;20626;-78
2021/10/23 06:00:34;;;;;;;5.43;2.40;;;10.00;99.90;;;;;;5017493;28;20436;-78
2021/10/23 06:03:01;;;;;;;5.30;2.70;;;10.10;99.90;;;;;;5016963;28;20485;-78
2021/10/23 06:05:28;;;;;;;8.10;2.80;;;10.10;99.90;;;;;;5018184;28;20489;-77
2021/10/23 06:07:55;;;;;;;9.97;3.07;;;10.10;99.90;;;;;;5022280;28;20478;-78
2021/10/23 06:10:23;;;;;;;6.90;2.60;;;10.10;99.90;;;;;;5016971;28;20424;-78
2021/10/23 06:12:51;;;;;;;6.33;2.50;;;10.00;99.90;;;;;;5017153;28;20473;-78
2021/10/23 06:15:19;;;;;;;4.37;2.70;;;10.00;99.90;;;;;;5014816;28;20428;-77
2021/10/23 06:17:46;;;;;;;8.13;3.10;;;10.00;99.90;;;;;;5014308;28;20965;-77
2021/10/23 06:20:13;;;;;;;7.20;2.90;;;10.10;99.90;;;;;;5014779;28;20822;-77
2021/10/23 06:22:49;;;;;;;5.63;2.90;;;10.00;99.90;;;;;;5015243;28;20453;-77
2021/10/23 06:25:17;;;;;;;4.53;2.60;;;10.00;99.90;;;;;;5014798;28;20448;-77
2021/10/23 06:27:44;;;;;;;8.40;3.47;;;10.10;99.90;;;;;;5014096;28;20454;-78
2021/10/23 06:30:12;;;;;;;6.73;3.40;;;10.00;99.90;;;;;;5014250;28;20820;-77
2021/10/23 06:32:45;;;;;;;5.10;2.87;;;10.00;99.90;;;;;;5014488;28;20458;-77
2021/10/23 06:35:12;;;;;;;6.00;2.57;;;10.00;99.90;;;;;;5014484;28;20416;-77
2021/10/23 06:37:39;;;;;;;7.30;2.93;;;10.00;99.90;;;;;;5014053;28;20464;-78
2021/10/23 06:40:07;;;;;;;5.73;2.33;;;10.10;99.90;;;;;;5015332;28;20818;-77
2021/10/23 06:42:34;;;;;;;8.10;2.90;;;10.10;99.90;;;;;;5014220;28;20463;-78
2021/10/23 06:45:01;;;;;;;5.00;2.27;;;10.10;99.90;;;;;;5014044;28;20520;-78
2021/10/23 06:47:29;;;;;;;5.67;2.83;;;10.10;99.90;;;;;;5015112;28;20462;-78
2021/10/23 06:49:56;;;;;;;4.60;2.27;;;10.10;99.90;;;;;;5016077;28;20429;-78
2021/10/23 06:52:22;;;;;;;7.10;2.57;;;10.20;99.90;;;;;;5016323;28;20508;-78
2021/10/23 06:54:49;;;;;;;6.47;2.87;;;10.20;99.90;;;;;;5018975;28;20424;-78
2021/10/23 06:57:16;;;;;;;5.10;2.83;;;10.20;99.90;;;;;;5028020;28;20469;-78
2021/10/23 06:59:43;;;;;;;5.03;2.43;;;10.30;99.90;;;;;;5016578;28;20484;-78
2021/10/23 07:02:10;;;;;;;10.63;3.60;;;10.40;99.90;;;;;;5016730;28;20464;-78
2021/10/23 07:04:38;;;;;;;10.83;2.90;;;10.40;99.90;;;;;;5015314;28;20489;-78
2021/10/23 07:07:05;;;;;;;8.80;3.63;;;10.40;99.90;;;;;;5015877;28;20453;-78
2021/10/23 07:09:32;;;;;;;7.57;3.40;;;10.50;99.90;;;;;;5014524;28;20547;-77
2021/10/23 07:11:59;;;;;;;6.30;3.00;;;10.50;99.90;;;;;;5013334;28;20913;-77
2021/10/23 07:14:26;;;;;;;9.10;3.10;;;10.60;99.90;;;;;;5016251;28;20957;-78
2021/10/23 07:16:52;;;;;;;5.00;2.60;;;10.70;99.90;;;;;;5022874;28;20463;-78
2021/10/23 07:19:19;;;;;;;5.60;2.60;;;10.70;99.90;;;;;;5019859;28;21075;-78
2021/10/23 07:21:48;;;;;;;7.60;2.77;;;10.80;99.90;;;;;;5025573;28;20489;-78
2021/10/23 07:24:17;;;;;;;4.70;2.10;;;10.80;99.90;;;;;;5014937;28;20983;-77
2021/10/23 07:26:44;;;;;;;6.30;2.43;;;10.90;99.90;;;;;;5018482;28;20436;-77
2021/10/23 07:29:13;;;;;;;9.67;3.80;;;10.70;99.90;;;;;;5015261;28;20996;-78
2021/10/23 07:31:39;;;;;;;6.37;3.40;;;10.70;99.90;;;;;;5015543;28;20453;-78
2021/10/23 07:34:06;;;;;;;5.70;2.80;;;10.60;99.90;;;;;;5015211;28;20818;-78
2021/10/23 07:36:33;;;;;;;15.33;3.40;;;10.50;99.90;;;;;;5015794;28;20561;-78
2021/10/23 07:39:01;;;;;;;8.70;2.80;;;10.40;99.90;;;;;;5015449;28;20489;-78
2021/10/23 07:41:28;;;;;;;10.20;3.53;;;10.40;99.90;;;;;;5016174;28;21041;-78
2021/10/23 07:43:55;;;;;;;4.77;2.87;;;10.40;99.90;;;;;;5017673;28;20466;-77
2021/10/23 07:46:22;;;;;;;6.80;2.93;;;10.50;99.90;;;;;;5015954;28;20820;-78
2021/10/23 07:48:49;;;;;;;7.27;2.90;;;10.50;99.90;;;;;;5016082;28;20473;-77
2021/10/23 07:51:15;;;;;;;7.20;3.07;;;10.50;99.90;;;;;;5029628;28;20434;-78
2021/10/23 07:53:42;;;;;;;8.40;3.10;;;10.40;99.90;;;;;;5026742;28;20456;-78
2021/10/23 07:56:10;;;;;;;8.77;2.90;;;10.30;99.90;;;;;;5019803;28;20425;-78
2021/10/23 07:58:37;;;;;;;9.70;3.00;;;10.40;99.90;;;;;;5020202;28;20458;-77
2021/10/23 08:01:04;;;;;;;6.23;2.70;;;10.40;99.90;;;;;;5025428;28;20436;-77
2021/10/23 08:03:31;;;;;;;7.97;2.70;;;10.60;99.90;;;;;;5023999;28;20477;-78
2021/10/23 08:05:58;;;;;;;5.40;2.60;;;10.60;99.90;;;;;;5026976;28;20549;-78
2021/10/23 08:08:25;;;;;;;5.67;3.07;;;10.70;99.90;;;;;;5024125;28;20900;-77
2021/10/23 08:10:52;;;;;;;8.73;3.63;;;10.80;99.90;;;;;;5020224;28;20527;-77
2021/10/23 08:13:20;;;;;;;6.07;2.80;;;10.70;99.90;;;;;;5019822;28;20957;-77
2021/10/23 08:15:47;;;;;;;5.70;2.00;;;10.80;99.90;;;;;;5018504;28;20457;-76
2021/10/23 08:18:14;;;;;;;6.40;3.00;;;10.80;99.90;;;;;;5018505;28;20565;-78
2021/10/23 08:20:41;;;;;;;8.07;2.60;;;10.80;99.90;;;;;;5016836;28;20449;-77
2021/10/23 08:23:09;;;;;;;6.00;2.60;;;10.90;99.90;;;;;;5016757;28;20443;-78
2021/10/23 08:25:35;;;;;;;9.57;2.67;;;10.90;99.90;;;;;;5016786;28;20824;-78
2021/10/23 08:28:03;;;;;;;7.67;3.13;;;11.00;99.90;;;;;;5016241;28;20483;-78
2021/10/23 08:30:32;;;;;;;12.67;2.93;;;11.10;99.90;;;;;;5016426;28;20456;-79
2021/10/23 08:32:59;;;;;;;6.70;2.50;;;11.10;99.90;;;;;;5016508;28;20457;-77
2021/10/23 08:35:26;;;;;;;7.93;3.23;;;11.00;99.90;;;;;;5016813;28;20421;-77
2021/10/23 08:37:54;;;;;;;10.40;2.70;;;11.00;99.90;;;;;;5016308;28;20463;-77
2021/10/23 08:40:22;;;;;;;10.47;2.90;;;11.00;99.90;;;;;;5016781;28;20461;-77
2021/10/23 08:42:50;;;;;;;10.27;3.43;;;10.90;99.90;;;;;;5017570;28;20515;-78
2021/10/23 08:45:17;;;;;;;7.40;2.70;;;10.90;99.90;;;;;;5017378;28;20464;-77
2021/10/23 08:47:47;;;;;;;7.87;3.40;;;11.00;99.90;;;;;;5020863;28;20448;-79
2021/10/23 08:50:17;;;;;;;4.70;2.33;;;11.10;99.90;;;;;;5022590;28;20512;-79
2021/10/23 08:52:46;;;;;;;5.90;2.40;;;11.10;99.90;;;;;;5017893;28;20425;-77
2021/10/23 08:55:13;;;;;;;7.33;2.50;;;11.20;99.90;;;;;;5024777;28;20774;-78
2021/10/23 08:57:40;;;;;;;11.70;3.03;;;11.30;99.90;;;;;;5022175;28;20432;-78
2021/10/23 09:00:08;;;;;;;10.13;2.87;;;11.20;99.90;;;;;;5021633;28;20850;-78
2021/10/23 09:02:35;;;;;;;5.77;2.70;;;11.30;99.90;;;;;;5023331;28;20425;-78
2021/10/23 09:05:05;;;;;;;7.40;2.87;;;11.50;99.90;;;;;;5020872;28;20469;-78
2021/10/23 09:07:33;;;;;;;4.90;3.57;;;11.70;99.90;;;;;;5019290;28;20425;-78
2021/10/23 09:10:01;;;;;;;7.03;3.50;;;11.80;99.90;;;;;;5019420;28;20769;-78
2021/10/23 09:12:31;;;;;;;6.13;3.50;;;11.80;99.90;;;;;;5018387;28;20516;-78
2021/10/23 09:15:00;;;;;;;6.43;3.73;;;12.00;99.90;;;;;;5018438;28;20421;-78
2021/10/23 09:17:27;;;;;;;5.70;3.20;;;12.00;99.90;;;;;;5016290;28;20486;-76
2021/10/23 09:19:58;;;;;;;8.60;3.20;;;12.00;99.90;;;;;;5019110;28;20421;-79
2021/10/23 09:22:30;;;;;;;6.70;3.00;;;12.10;99.90;;;;;;5018390;28;20413;-78
2021/10/23 09:25:19;;;;;;;7.77;3.50;;;12.20;99.90;;;;;;5017310;28;20470;-78
2021/10/23 09:27:52;;;;;;;7.10;3.20;;;12.30;99.90;;;;;;5016103;28;20509;-78
2021/10/23 09:30:21;;;;;;;8.57;3.20;;;12.50;99.90;;;;;;5017233;28;20466;-77
2021/10/23 09:32:56;;;;;;;7.40;3.23;;;12.60;99.90;;;;;;5017415;28;20425;-79
2021/10/23 09:35:24;;;;;;;9.13;2.87;;;12.70;99.90;;;;;;5015683;28;20420;-78
2021/10/23 09:37:56;;;;;;;6.80;2.73;;;12.80;99.90;;;;;;5017258;28;20863;-78
2021/10/23 09:40:24;;;;;;;9.77;3.30;;;12.70;99.90;;;;;;5031203;23;20995;-78
2021/10/23 09:43:12;;;;;;;11.70;3.37;;;12.70;99.90;;;;;;5016665;28;20443;-78
2021/10/23 09:46:00;;;;;;;6.27;2.90;;;12.80;99.90;;;;;;5017213;28;20866;-78
2021/10/23 09:48:32;;;;;;;6.13;3.47;;;12.90;99.90;;;;;;5018387;28;20526;-77
2021/10/23 09:51:19;;;;;;;6.13;2.30;;;12.80;99.90;;;;;;5019218;28;20494;-78
2021/10/23 09:53:48;;;;;;;6.13;3.13;;;12.80;99.90;;;;;;5018188;28;20413;-77
2021/10/23 09:56:21;;;;;;;13.60;3.70;;;12.60;99.90;;;;;;5017234;28;20453;-80
2021/10/23 09:58:57;;;;;;;7.20;3.90;;;12.70;99.90;;;;;;5016648;28;20476;-79
2021/10/23 10:01:26;;;;;;;5.93;3.67;;;12.80;99.90;;;;;;5022413;28;20456;-77
2021/10/23 10:03:54;;;;;;;7.50;3.20;;;12.80;99.90;;;;;;5019844;28;20445;-77
2021/10/23 10:06:21;;;;;;;5.30;2.90;;;12.70;99.90;;;;;;5026298;28;20485;-77
2021/10/23 10:08:50;;;;;;;7.20;3.20;;;12.80;99.90;;;;;;5027491;28;20460;-77
2021/10/23 10:11:18;;;;;;;10.93;3.10;;;12.80;99.90;;;;;;5025384;28;20808;-79
2021/10/23 10:13:45;;;;;;;8.57;3.33;;;12.50;99.90;;;;;;5018497;28;20425;-79
2021/10/23 10:16:12;;;;;;;7.17;2.73;;;12.60;99.90;;;;;;5015829;28;20803;-79
2021/10/23 10:18:41;;;;;;;6.27;2.80;;;12.70;99.90;;;;;;5017343;28;20473;-79
2021/10/23 10:21:11;;;;;;;7.00;2.70;;;12.80;99.90;;;;;;5017516;28;20791;-78
2021/10/23 10:23:39;;;;;;;6.00;3.03;;;13.00;99.90;;;;;;5017125;28;20829;-78
2021/10/23 10:26:33;;;;;;;6.00;2.27;;;13.20;99.90;;;;;;5017854;28;20585;-78
2021/10/23 10:29:18;;;;;;;7.47;3.40;;;13.10;99.90;;;;;;5027280;28;20528;-79
2021/10/23 10:31:47;;;;;;;7.73;3.30;;;13.20;99.90;;;;;;5017371;28;20796;-79
2021/10/23 10:35:10;;;;;;;7.47;2.90;;;13.20;99.90;;;;;;5016720;28;20950;-78
2021/10/23 10:42:41;;;;;;;9.43;4.03;;;12.70;99.90;;;;;;5016902;28;21051;-78
2021/10/23 10:44:14;;;;;;;8.47;4.13;;;12.40;99.90;;;;;;5017687;28;20479;-78
2021/10/23 10:47:13;;;;;;;7.87;4.20;;;12.10;99.90;;;;;;5016138;28;21013;-78
2021/10/23 10:49:50;;;;;;;10.10;4.20;;;12.10;99.90;;;;;;5004108;28;20463;-79
2021/10/23 10:53:03;;;;;;;7.30;4.27;;;12.20;99.90;;;;;;5016024;28;20514;-79
2021/10/23 10:55:40;;;;;;;8.27;4.37;;;12.40;99.90;;;;;;5016421;28;20480;-79
2021/10/23 10:58:09;;;;;;;7.07;3.90;;;12.60;99.90;;;;;;5016051;28;20475;-79
2021/10/23 11:01:12;;;;;;;10.90;5.30;;;12.60;99.90;;;;;;5016179;28;20470;-79
2021/10/23 11:03:43;;;;;;;7.00;3.47;;;12.60;99.90;;;;;;5015908;28;20413;-79
2021/10/23 11:06:36;;;;;;;6.83;3.53;;;12.80;99.90;;;;;;5015810;28;20445;-79
2021/10/23 11:09:30;;;;;;;8.73;4.60;;;12.80;99.90;;;;;;5008956;28;20464;-79
2021/10/23 11:12:36;;;;;;;6.30;3.50;;;12.80;99.90;;;;;;5015561;28;20405;-78
2021/10/23 11:15:04;;;;;;;5.60;2.77;;;13.00;99.90;;;;;;5016011;28;20506;-78
2021/10/23 11:17:40;;;;;;;5.10;2.33;;;13.10;99.90;;;;;;5015434;28;20900;-78
2021/10/23 11:20:12;;;;;;;6.07;2.70;;;13.20;99.90;;;;;;5014798;28;20448;-78
2021/10/23 11:22:40;;;;;;;7.10;3.93;;;13.00;99.90;;;;;;5015942;28;20418;-78
2021/10/23 11:25:08;;;;;;;6.60;2.83;;;13.10;99.90;;;;;;5015598;28;20406;-80
2021/10/23 11:27:41;;;;;;;6.80;2.90;;;13.10;99.90;;;;;;5018178;28;20436;-80
2021/10/23 11:30:15;;;;;;;8.00;3.53;;;13.00;99.90;;;;;;5019232;28;20460;-78
2021/10/23 11:32:53;;;;;;;5.50;2.90;;;13.00;99.90;;;;;;5020329;28;20434;-78
2021/10/23 11:35:37;;;;;;;5.20;2.97;;;13.00;99.90;;;;;;5018322;28;20441;-78
2021/10/23 11:38:08;;;;;;;6.70;2.90;;;13.10;99.90;;;;;;5018541;28;20413;-79
2021/10/23 11:40:37;;;;;;;8.93;3.53;;;13.20;99.90;;;;;;5020555;28;20544;-79
2021/10/23 11:43:05;;;;;;;8.30;4.57;;;13.20;99.90;;;;;;5019379;28;20425;-79
2021/10/23 11:45:33;;;;;;;7.20;3.63;;;13.40;99.90;;;;;;5018934;28;20576;-79
2021/10/23 11:48:06;;;;;;;7.87;3.10;;;13.50;99.90;;;;;;5019496;28;20535;-79
2021/10/23 11:50:36;;;;;;;6.67;3.37;;;13.50;99.90;;;;;;5018272;28;20963;-78
2021/10/23 11:53:10;;;;;;;8.80;3.27;;;13.40;99.90;;;;;;5019054;28;20855;-79
2021/10/23 11:55:39;;;;;;;5.60;2.50;;;13.30;99.50;;;;;;5022011;28;20449;-78
2021/10/23 11:58:07;;;;;;;5.03;2.33;;;13.40;99.80;;;;;;5025961;28;20458;-77
2021/10/23 12:00:37;;;;;;;7.63;2.30;;;13.60;98.80;;;;;;5020541;28;20484;-78
2021/10/23 12:03:08;;;;;;;9.33;2.90;;;13.70;98.90;;;;;;5019531;28;20813;-78
2021/10/23 12:05:44;;;;;;;7.73;3.20;;;13.60;97.90;;;;;;5019114;28;20816;-78
2021/10/23 12:08:17;;;;;;;4.63;2.60;;;13.40;97.80;;;;;;5017546;28;20789;-77
2021/10/23 12:11:16;;;;;;;7.63;2.80;;;13.40;98.40;;;;;;5020045;28;20435;-79
2021/10/23 12:14:05;;;;;;;8.13;3.40;;;13.60;98.70;;;;;;5019549;28;20500;-79
2021/10/23 12:16:42;;;;;;;5.30;2.47;;;13.90;98.80;;;;;;5019640;28;20427;-78
2021/10/23 12:19:16;;;;;;;4.93;2.30;;;14.20;97.70;;;;;;5017309;28;20523;-78
2021/10/23 12:21:48;;;;;;;4.00;1.47;;;14.10;97.40;;;;;;5020896;28;20409;-78
2021/10/23 12:24:30;;;;;;;4.27;2.37;;;13.80;97.30;;;;;;5023583;28;20442;-78
2021/10/23 12:27:09;;;;;;;6.00;3.37;;;13.60;97.90;;;;;;5026004;28;20516;-84
2021/10/23 12:29:38;;;;;;;6.97;2.53;;;13.60;98.00;;;;;;5018871;28;20474;-79
2021/10/23 12:32:08;;;;;;;7.70;3.10;;;13.70;98.00;;;;;;5019151;28;20914;-80
2021/10/23 12:35:14;;;;;;;6.27;2.83;;;13.90;97.70;;;;;;5020069;28;20429;-80
2021/10/23 12:37:46;;;;;;;7.13;2.50;;;13.90;96.60;;;;;;5014456;28;20439;-79
2021/10/23 12:40:21;;;;;;;7.23;2.80;;;13.80;96.90;;;;;;5020352;28;20464;-79
2021/10/23 12:42:51;;;;;;;6.77;3.10;;;13.80;96.80;;;;;;5020781;28;20442;-79
2021/10/23 12:45:19;;;;;;;11.97;3.50;;;13.80;96.40;;;;;;5019531;28;20450;-79
2021/10/23 12:47:47;;;;;;;8.97;3.70;;;13.80;96.30;;;;;;5019182;28;20457;-80
2021/10/23 12:50:14;;;;;;;6.80;3.00;;;13.80;96.70;;;;;;5021898;28;20481;-83
2021/10/23 12:52:43;;;;;;;10.33;3.10;;;13.80;97.40;;;;;;5021480;28;20461;-82
2021/10/23 12:55:11;;;;;;;5.70;2.27;;;13.90;96.40;;;;;;5021164;28;20495;-81
2021/10/23 12:57:39;;;;;;;8.87;3.17;;;13.90;96.40;;;;;;5021661;28;20522;-81
2021/10/23 13:00:09;;;;;;;11.90;3.80;;;13.80;96.30;;;;;;5019957;28;20470;-80
2021/10/23 13:02:36;;;;;;;8.17;4.67;;;13.70;96.30;;;;;;5020179;28;20480;-79
2021/10/23 13:05:04;;;;;;;6.60;2.60;;;13.70;95.90;;;;;;5019092;28;20429;-80